Terminal Aerodrome Forecast
Issued by NWS

Home | Current Version | Previous Version | Text Only | Print | Product List | Glossary On
Versions: 1 2 3 4 5 6 7 8 9 10 11 12 13
000
FTUS43 KICT 211100 RRA
TAFRSL
TAF
KRSL 211142Z 2112/2212 35009KT P6SM -RA BKN080
     FM211300 36013KT P6SM BKN100
     FM211800 02013KT P6SM SCT070=

USA.gov is the U.S. government's official web portal to all federal, state and local government web resources and services.